sensor_id;sensor_type;location;lat;lon;timestamp;pressure;altitude;pressure_sealevel;temperature;humidity
84995;BME280;75312;47.528;19.016;2024-03-02T00:00:17;98345.13;;;10.29;82.07
84995;BME280;75312;47.528;19.016;2024-03-02T00:00:51;98349.38;;;10.30;82.21
84995;BME280;75312;47.528;19.016;2024-03-02T00:01:24;98345.94;;;10.30;82.16
84995;BME280;75312;47.528;19.016;2024-03-02T00:01:55;98342.50;;;10.29;82.11
84995;BME280;75312;47.528;19.016;2024-03-02T00:02:25;98348.09;;;10.26;82.54
84995;BME280;75312;47.528;19.016;2024-03-02T00:02:56;98356.06;;;10.25;82.30
84995;BME280;75312;47.528;19.016;2024-03-02T00:03:28;98349.88;;;10.26;82.23
84995;BME280;75312;47.528;19.016;2024-03-02T00:03:59;98345.78;;;10.23;82.28
84995;BME280;75312;47.528;19.016;2024-03-02T00:04:29;98349.38;;;10.22;82.58
84995;BME280;75312;47.528;19.016;2024-03-02T00:05:04;98350.66;;;10.18;82.81
84995;BME280;75312;47.528;19.016;2024-03-02T00:05:37;98354.09;;;10.19;82.75
84995;BME280;75312;47.528;19.016;2024-03-02T00:06:11;98357.84;;;10.16;82.92
84995;BME280;75312;47.528;19.016;2024-03-02T00:06:44;98350.50;;;10.11;82.67
84995;BME280;75312;47.528;19.016;2024-03-02T00:07:17;98350.50;;;10.11;82.94
84995;BME280;75312;47.528;19.016;2024-03-02T00:07:58;98356.88;;;10.09;83.29
84995;BME280;75312;47.528;19.016;2024-03-02T00:08:30;98350.97;;;10.07;82.91
84995;BME280;75312;47.528;19.016;2024-03-02T00:09:03;98350.31;;;10.05;83.17
84995;BME280;75312;47.528;19.016;2024-03-02T00:09:36;98350.81;;;10.08;83.53
84995;BME280;75312;47.528;19.016;2024-03-02T00:10:16;98351.47;;;10.10;83.25
84995;BME280;75312;47.528;19.016;2024-03-02T00:10:50;98349.34;;;10.14;83.02
84995;BME280;75312;47.528;19.016;2024-03-02T00:11:21;98351.78;;;10.15;82.97
84995;BME280;75312;47.528;19.016;2024-03-02T00:11:51;98345.75;;;10.15;82.53
84995;BME280;75312;47.528;19.016;2024-03-02T00:12:22;98350.66;;;10.18;82.75
84995;BME280;75312;47.528;19.016;2024-03-02T00:12:53;98348.69;;;10.20;82.85
84995;BME280;75312;47.528;19.016;2024-03-02T00:13:23;98348.06;;;10.18;82.70
84995;BME280;75312;47.528;19.016;2024-03-02T00:13:54;98346.56;;;10.15;82.45
84995;BME280;75312;47.528;19.016;2024-03-02T00:14:30;98343.63;;;10.19;82.77
84995;BME280;75312;47.528;19.016;2024-03-02T00:16:03;98333.97;;;10.19;82.62
84995;BME280;75312;47.528;19.016;2024-03-02T00:16:38;98333.16;;;10.19;82.76
84995;BME280;75312;47.528;19.016;2024-03-02T00:17:20;98339.69;;;10.14;83.21
84995;BME280;75312;47.528;19.016;2024-03-02T00:17:54;98331.66;;;10.16;83.16
84995;BME280;75312;47.528;19.016;2024-03-02T00:18:30;98337.25;;;10.13;83.11
84995;BME280;75312;47.528;19.016;2024-03-02T00:19:02;98324.16;;;10.13;83.36
84995;BME280;75312;47.528;19.016;2024-03-02T00:19:35;98343.47;;;10.12;83.38
84995;BME280;75312;47.528;19.016;2024-03-02T00:20:21;98330.53;;;10.10;83.28
84995;BME280;75312;47.528;19.016;2024-03-02T00:20:56;98332.19;;;10.11;82.86
84995;BME280;75312;47.528;19.016;2024-03-02T00:21:31;98326.94;;;10.11;82.82
84995;BME280;75312;47.528;19.016;2024-03-02T00:22:01;98333.00;;;10.12;82.39
84995;BME280;75312;47.528;19.016;2024-03-02T00:22:35;98324.16;;;10.13;82.55
84995;BME280;75312;47.528;19.016;2024-03-02T00:23:08;98327.75;;;10.12;82.96
84995;BME280;75312;47.528;19.016;2024-03-02T00:23:41;98322.69;;;10.10;82.79
84995;BME280;75312;47.528;19.016;2024-03-02T00:24:56;98327.75;;;10.12;82.40
84995;BME280;75312;47.528;19.016;2024-03-02T00:25:27;98331.53;;;10.09;82.22
84995;BME280;75312;47.528;19.016;2024-03-02T00:26:00;98334.97;;;10.10;82.56
84995;BME280;75312;47.528;19.016;2024-03-02T00:26:31;98326.78;;;10.13;82.73
84995;BME280;75312;47.528;19.016;2024-03-02T00:27:06;98330.22;;;10.13;82.28
84995;BME280;75312;47.528;19.016;2024-03-02T00:27:37;98327.75;;;10.12;82.12
84995;BME280;75312;47.528;19.016;2024-03-02T00:28:17;98321.72;;;10.11;81.84
84995;BME280;75312;47.528;19.016;2024-03-02T00:28:49;98329.22;;;10.14;81.80
84995;BME280;75312;47.528;19.016;2024-03-02T00:29:21;98331.53;;;10.18;82.00
84995;BME280;75312;47.528;19.016;2024-03-02T00:29:52;98325.63;;;10.15;82.03
84995;BME280;75312;47.528;19.016;2024-03-02T00:30:46;98332.81;;;10.05;82.32
84995;BME280;75312;47.528;19.016;2024-03-02T00:31:21;98329.38;;;10.05;82.17
84995;BME280;75312;47.528;19.016;2024-03-02T00:31:51;98328.09;;;10.01;82.66
84995;BME280;75312;47.528;19.016;2024-03-02T00:32:23;98327.25;;;10.00;82.38
84995;BME280;75312;47.528;19.016;2024-03-02T00:32:55;98326.44;;;10.08;82.46
84995;BME280;75312;47.528;19.016;2024-03-02T00:33:33;98329.38;;;10.05;82.50
84995;BME280;75312;47.528;19.016;2024-03-02T00:34:05;98319.91;;;10.04;82.67
84995;BME280;75312;47.528;19.016;2024-03-02T00:34:38;98325.94;;;10.04;82.41
84995;BME280;75312;47.528;19.016;2024-03-02T00:35:11;98329.38;;;9.97;82.26
84995;BME280;75312;47.528;19.016;2024-03-02T00:35:44;98324.66;;;9.92;82.26
84995;BME280;75312;47.528;19.016;2024-03-02T00:36:25;98323.81;;;10.00;82.63
84995;BME280;75312;47.528;19.016;2024-03-02T00:36:57;98327.25;;;10.08;82.07
84995;BME280;75312;47.528;19.016;2024-03-02T00:37:30;98325.78;;;9.98;82.42
84995;BME280;75312;47.528;19.016;2024-03-02T00:38:07;98323.00;;;9.99;82.58
84995;BME280;75312;47.528;19.016;2024-03-02T00:38:55;98326.75;;;9.97;82.98
84995;BME280;75312;47.528;19.016;2024-03-02T00:39:25;98323.34;;;9.96;82.62
84995;BME280;75312;47.528;19.016;2024-03-02T00:40:01;98329.72;;;9.94;82.74
84995;BME280;75312;47.528;19.016;2024-03-02T00:40:34;98331.03;;;10.06;82.73
84995;BME280;75312;47.528;19.016;2024-03-02T00:41:06;98330.19;;;10.05;81.78
84995;BME280;75312;47.528;19.016;2024-03-02T00:41:41;98325.78;;;9.98;83.13
84995;BME280;75312;47.528;19.016;2024-03-02T00:42:15;98334.94;;;9.94;82.52
84995;BME280;75312;47.528;19.016;2024-03-02T00:42:45;98336.75;;;9.93;83.28
84995;BME280;75312;47.528;19.016;2024-03-02T00:44:14;98332.94;;;9.71;83.99
84995;BME280;75312;47.528;19.016;2024-03-02T00:44:45;98338.63;;;9.67;84.40
84995;BME280;75312;47.528;19.016;2024-03-02T00:45:18;98341.91;;;9.61;84.49
84995;BME280;75312;47.528;19.016;2024-03-02T00:45:48;98336.34;;;9.64;84.20
84995;BME280;75312;47.528;19.016;2024-03-02T00:46:21;98338.50;;;9.60;84.74
84995;BME280;75312;47.528;19.016;2024-03-02T00:46:54;98339.31;;;9.69;84.72
84995;BME280;75312;47.528;19.016;2024-03-02T00:47:25;98341.78;;;9.70;84.66
84995;BME280;75312;47.528;19.016;2024-03-02T00:47:55;98339.97;;;9.63;85.11
84995;BME280;75312;47.528;19.016;2024-03-02T00:48:26;98336.38;;;9.72;84.87
84995;BME280;75312;47.528;19.016;2024-03-02T00:48:59;98337.69;;;9.68;84.36
84995;BME280;75312;47.528;19.016;2024-03-02T00:49:30;98337.22;;;9.80;84.26
84995;BME280;75312;47.528;19.016;2024-03-02T00:50:04;98336.38;;;9.72;84.41
84995;BME280;75312;47.528;19.016;2024-03-02T00:50:35;98342.09;;;9.59;85.21
84995;BME280;75312;47.528;19.016;2024-03-02T00:51:08;98340.59;;;9.65;84.91
84995;BME280;75312;47.528;19.016;2024-03-02T00:51:39;98329.53;;;9.87;83.92
84995;BME280;75312;47.528;19.016;2024-03-02T00:52:13;98336.53;;;9.70;84.78
84995;BME280;75312;47.528;19.016;2024-03-02T00:52:45;98340.44;;;9.66;84.76
84995;BME280;75312;47.528;19.016;2024-03-02T00:53:24;98336.22;;;9.73;84.63
84995;BME280;75312;47.528;19.016;2024-03-02T00:54:00;98335.75;;;9.94;83.92
84995;BME280;75312;47.528;19.016;2024-03-02T00:54:33;98334.59;;;9.88;83.97
84995;BME280;75312;47.528;19.016;2024-03-02T00:55:04;98332.47;;;9.76;84.56
84995;BME280;75312;47.528;19.016;2024-03-02T00:55:37;98334.88;;;9.61;85.44
84995;BME280;75312;47.528;19.016;2024-03-02T00:56:10;98340.13;;;9.69;85.02
84995;BME280;75312;47.528;19.016;2024-03-02T00:56:42;98331.00;;;9.81;84.44
84995;BME280;75312;47.528;19.016;2024-03-02T00:57:16;98341.97;;;9.77;84.35
84995;BME280;75312;47.528;19.016;2024-03-02T00:57:46;98339.50;;;9.83;84.23
84995;BME280;75312;47.528;19.016;2024-03-02T00:58:17;98336.59;;;10.11;82.90
84995;BME280;75312;47.528;19.016;2024-03-02T00:58:51;98334.28;;;10.08;82.80
84995;BME280;75312;47.528;19.016;2024-03-02T00:59:23;98340.97;;;9.86;83.67
84995;BME280;75312;47.528;19.016;2024-03-02T00:59:53;98341.78;;;9.70;84.65
84995;BME280;75312;47.528;19.016;2024-03-02T01:00:27;98348.84;;;9.86;84.32
84995;BME280;75312;47.528;19.016;2024-03-02T01:00:57;98343.06;;;9.74;84.72
84995;BME280;75312;47.528;19.016;2024-03-02T01:01:28;98342.59;;;9.71;84.88
84995;BME280;75312;47.528;19.016;2024-03-02T01:01:58;98341.13;;;9.68;84.93
84995;BME280;75312;47.528;19.016;2024-03-02T01:02:29;98341.13;;;9.68;84.51
84995;BME280;75312;47.528;19.016;2024-03-02T01:03:05;98345.84;;;9.73;84.72
84995;BME280;75312;47.528;19.016;2024-03-02T01:03:36;98346.16;;;9.62;85.23
84995;BME280;75312;47.528;19.016;2024-03-02T01:04:09;98347.44;;;9.57;85.84
84995;BME280;75312;47.528;19.016;2024-03-02T01:04:40;98341.56;;;9.55;85.56
84995;BME280;75312;47.528;19.016;2024-03-02T01:05:10;98340.75;;;9.55;86.25
84995;BME280;75312;47.528;19.016;2024-03-02T01:05:44;98342.09;;;9.59;86.08
84995;BME280;75312;47.528;19.016;2024-03-02T01:06:18;98345.16;;;9.54;86.23
84995;BME280;75312;47.528;19.016;2024-03-02T01:06:49;98341.88;;;9.44;86.57
84995;BME280;75312;47.528;19.016;2024-03-02T01:07:19;98345.13;;;9.46;86.42
84995;BME280;75312;47.528;19.016;2024-03-02T01:07:50;98343.69;;;9.52;86.07
84995;BME280;75312;47.528;19.016;2024-03-02T01:08:25;98345.81;;;9.56;85.84
84995;BME280;75312;47.528;19.016;2024-03-02T01:09:01;98344.00;;;9.57;86.34
84995;BME280;75312;47.528;19.016;2024-03-02T01:09:32;98340.06;;;9.45;86.03
84995;BME280;75312;47.528;19.016;2024-03-02T01:10:03;98342.84;;;9.43;86.40
84995;BME280;75312;47.528;19.016;2024-03-02T01:10:37;98340.88;;;9.37;86.62
84995;BME280;75312;47.528;19.016;2024-03-02T01:11:08;98345.00;;;9.56;86.17
84995;BME280;75312;47.528;19.016;2024-03-02T01:11:38;98346.47;;;9.50;86.22
84995;BME280;75312;47.528;19.016;2024-03-02T01:12:11;98339.25;;;9.44;86.46
84995;BME280;75312;47.528;19.016;2024-03-02T01:12:47;98345.66;;;9.58;85.83
84995;BME280;75312;47.528;19.016;2024-03-02T01:13:18;98344.38;;;9.62;85.70
84995;BME280;75312;47.528;19.016;2024-03-02T01:13:48;98341.25;;;9.67;85.55
84995;BME280;75312;47.528;19.016;2024-03-02T01:14:19;98338.66;;;9.75;84.99
84995;BME280;75312;47.528;19.016;2024-03-02T01:14:50;98339.97;;;9.63;85.22
84995;BME280;75312;47.528;19.016;2024-03-02T01:15:23;98339.63;;;9.66;84.70
84995;BME280;75312;47.528;19.016;2024-03-02T01:15:57;98333.25;;;9.60;84.85
84995;BME280;75312;47.528;19.016;2024-03-02T01:16:30;98332.25;;;9.53;85.61
84995;BME280;75312;47.528;19.016;2024-03-02T01:17:02;98330.66;;;9.60;84.90
84995;BME280;75312;47.528;19.016;2024-03-02T01:17:34;98329.97;;;9.58;85.25
84995;BME280;75312;47.528;19.016;2024-03-02T01:18:05;98333.56;;;9.57;85.05
84995;BME280;75312;47.528;19.016;2024-03-02T01:18:35;98327.50;;;9.56;84.85
84995;BME280;75312;47.528;19.016;2024-03-02T01:19:06;98329.66;;;9.61;84.73
84995;BME280;75312;47.528;19.016;2024-03-02T01:19:37;98330.66;;;9.60;84.97
84995;BME280;75312;47.528;19.016;2024-03-02T01:20:11;98327.50;;;9.56;85.08
84995;BME280;75312;47.528;19.016;2024-03-02T01:20:41;98324.72;;;9.58;85.41
84995;BME280;75312;47.528;19.016;2024-03-02T01:21:12;98326.72;;;9.72;84.32
84995;BME280;75312;47.528;19.016;2024-03-02T01:21:45;98319.69;;;9.65;84.99
84995;BME280;75312;47.528;19.016;2024-03-02T01:22:18;98324.91;;;9.56;84.63
84995;BME280;75312;47.528;19.016;2024-03-02T01:22:55;98325.41;;;9.52;85.10
84995;BME280;75312;47.528;19.016;2024-03-02T01:23:31;98325.91;;;9.64;84.78
84995;BME280;75312;47.528;19.016;2024-03-02T01:24:01;98328.31;;;9.57;84.70
84995;BME280;75312;47.528;19.016;2024-03-02T01:24:34;98323.44;;;9.54;84.63
84995;BME280;75312;47.528;19.016;2024-03-02T01:25:05;98318.53;;;9.51;85.34
84995;BME280;75312;47.528;19.016;2024-03-02T01:25:39;98323.09;;;9.57;84.82
84995;BME280;75312;47.528;19.016;2024-03-02T01:26:11;98322.78;;;9.60;84.92
84995;BME280;75312;47.528;19.016;2024-03-02T01:26:42;98322.63;;;9.53;85.20
84995;BME280;75312;47.528;19.016;2024-03-02T01:27:15;98320.47;;;9.49;85.09
84995;BME280;75312;47.528;19.016;2024-03-02T01:27:46;98314.13;;;9.59;84.55
84995;BME280;75312;47.528;19.016;2024-03-02T01:28:16;98324.75;;;9.66;84.62
84995;BME280;75312;47.528;19.016;2024-03-02T01:28:47;98316.91;;;9.66;84.57
84995;BME280;75312;47.528;19.016;2024-03-02T01:29:17;98317.06;;;9.65;84.23
84995;BME280;75312;47.528;19.016;2024-03-02T01:29:48;98316.59;;;9.69;84.08
84995;BME280;75312;47.528;19.016;2024-03-02T01:30:18;98315.44;;;9.64;84.25
84995;BME280;75312;47.528;19.016;2024-03-02T01:30:49;98313.16;;;9.61;84.15
84995;BME280;75312;47.528;19.016;2024-03-02T01:31:22;98313.00;;;9.62;84.15
84995;BME280;75312;47.528;19.016;2024-03-02T01:31:55;98317.72;;;9.67;83.58
84995;BME280;75312;47.528;19.016;2024-03-02T01:32:25;98312.66;;;9.65;83.59
84995;BME280;75312;47.528;19.016;2024-03-02T01:32:58;98310.22;;;9.64;84.03
84995;BME280;75312;47.528;19.016;2024-03-02T01:33:32;98306.44;;;9.66;83.60
84995;BME280;75312;47.528;19.016;2024-03-02T01:34:03;98304.66;;;9.67;84.01
84995;BME280;75312;47.528;19.016;2024-03-02T01:34:33;98303.81;;;9.66;84.17
84995;BME280;75312;47.528;19.016;2024-03-02T01:35:05;98301.06;;;9.68;84.25
84995;BME280;75312;47.528;19.016;2024-03-02T01:35:41;98296.97;;;9.65;84.22
84995;BME280;75312;47.528;19.016;2024-03-02T01:36:13;98300.25;;;9.67;83.66
84995;BME280;75312;47.528;19.016;2024-03-02T01:36:44;98299.28;;;9.68;83.74
84995;BME280;75312;47.528;19.016;2024-03-02T01:37:17;98295.69;;;9.69;83.79
84995;BME280;75312;47.528;19.016;2024-03-02T01:37:50;98297.78;;;9.66;84.23
84995;BME280;75312;47.528;19.016;2024-03-02T01:38:21;98297.28;;;9.62;84.35
84995;BME280;75312;47.528;19.016;2024-03-02T01:38:52;98296.16;;;9.65;84.25
84995;BME280;75312;47.528;19.016;2024-03-02T01:39:25;98294.50;;;9.64;84.17
84995;BME280;75312;47.528;19.016;2024-03-02T01:39:56;98294.84;;;9.61;84.00
84995;BME280;75312;47.528;19.016;2024-03-02T01:40:29;98291.41;;;9.60;84.27
84995;BME280;75312;47.528;19.016;2024-03-02T01:40:59;98292.06;;;9.62;83.95
84995;BME280;75312;47.528;19.016;2024-03-02T01:41:30;98292.25;;;9.61;84.52
84995;BME280;75312;47.528;19.016;2024-03-02T01:42:03;98294.34;;;9.65;84.25
84995;BME280;75312;47.528;19.016;2024-03-02T01:42:37;98288.00;;;9.68;83.64
84995;BME280;75312;47.528;19.016;2024-03-02T01:43:08;98288.31;;;9.65;84.04
84995;BME280;75312;47.528;19.016;2024-03-02T01:43:38;98289.09;;;9.57;83.89
84995;BME280;75312;47.528;19.016;2024-03-02T01:44:11;98285.38;;;9.59;83.72
84995;BME280;75312;47.528;19.016;2024-03-02T01:44:44;98287.19;;;9.59;83.87
84995;BME280;75312;47.528;19.016;2024-03-02T01:45:15;98283.56;;;9.60;84.29
84995;BME280;75312;47.528;19.016;2024-03-02T01:45:47;98284.41;;;9.61;83.85
84995;BME280;75312;47.528;19.016;2024-03-02T01:46:20;98279.31;;;9.59;84.02
84995;BME280;75312;47.528;19.016;2024-03-02T01:46:51;98285.03;;;9.63;83.79
84995;BME280;75312;47.528;19.016;2024-03-02T01:47:21;98281.94;;;9.59;83.52
84995;BME280;75312;47.528;19.016;2024-03-02T01:47:54;98284.41;;;9.61;83.61
84995;BME280;75312;47.528;19.016;2024-03-02T01:48:25;98280.28;;;9.58;83.47
84995;BME280;75312;47.528;19.016;2024-03-02T01:48:56;98282.91;;;9.58;84.00
84995;BME280;75312;47.528;19.016;2024-03-02T01:49:31;98283.75;;;9.58;83.56
84995;BME280;75312;47.528;19.016;2024-03-02T01:50:04;98288.00;;;9.59;84.00
84995;BME280;75312;47.528;19.016;2024-03-02T01:50:35;98287.19;;;9.59;83.37
84995;BME280;75312;47.528;19.016;2024-03-02T01:51:09;98286.34;;;9.58;83.70
84995;BME280;75312;47.528;19.016;2024-03-02T01:51:40;98282.44;;;9.63;83.68
84995;BME280;75312;47.528;19.016;2024-03-02T01:52:11;98283.56;;;9.60;83.43
84995;BME280;75312;47.528;19.016;2024-03-02T01:52:42;98279.47;;;9.57;83.81
84995;BME280;75312;47.528;19.016;2024-03-02T01:53:14;98280.78;;;9.62;83.46
84995;BME280;75312;47.528;19.016;2024-03-02T01:53:47;98282.25;;;9.64;83.18
84995;BME280;75312;47.528;19.016;2024-03-02T01:54:20;98280.78;;;9.62;83.48
84995;BME280;75312;47.528;19.016;2024-03-02T01:54:51;98295.50;;;9.63;83.41
84995;BME280;75312;47.528;19.016;2024-03-02T01:55:21;98286.84;;;9.62;83.90
84995;BME280;75312;47.528;19.016;2024-03-02T01:55:52;98288.00;;;9.59;83.49
84995;BME280;75312;47.528;19.016;2024-03-02T01:56:22;98281.59;;;9.62;83.92
84995;BME280;75312;47.528;19.016;2024-03-02T01:56:53;98283.06;;;9.65;83.37
84995;BME280;75312;47.528;19.016;2024-03-02T01:57:26;98289.94;;;9.66;83.71
84995;BME280;75312;47.528;19.016;2024-03-02T01:57:59;98286.50;;;9.65;83.58
84995;BME280;75312;47.528;19.016;2024-03-02T01:58:32;98288.47;;;9.63;83.75
84995;BME280;75312;47.528;19.016;2024-03-02T01:59:03;98290.28;;;9.63;83.35
84995;BME280;75312;47.528;19.016;2024-03-02T01:59:36;98290.09;;;9.64;83.30
84995;BME280;75312;47.528;19.016;2024-03-02T02:00:09;98298.28;;;9.61;83.59
84995;BME280;75312;47.528;19.016;2024-03-02T02:00:40;98287.47;;;9.56;83.35
84995;BME280;75312;47.528;19.016;2024-03-02T02:01:13;98289.44;;;9.54;83.41
84995;BME280;75312;47.528;19.016;2024-03-02T02:01:44;98284.84;;;9.48;82.86
84995;BME280;75312;47.528;19.016;2024-03-02T02:02:15;98286.81;;;9.46;82.82
84995;BME280;75312;47.528;19.016;2024-03-02T02:02:51;98293.66;;;9.47;82.80
84995;BME280;75312;47.528;19.016;2024-03-02T02:03:21;98297.09;;;9.47;82.69
84995;BME280;75312;47.528;19.016;2024-03-02T02:03:52;98281.56;;;9.46;82.93
84995;BME280;75312;47.528;19.016;2024-03-02T02:04:23;98292.38;;;9.43;83.46
84995;BME280;75312;47.528;19.016;2024-03-02T02:05:00;98290.88;;;9.40;83.68
84995;BME280;75312;47.528;19.016;2024-03-02T02:05:36;98298.75;;;9.56;82.81
84995;BME280;75312;47.528;19.016;2024-03-02T02:06:07;98296.28;;;9.47;83.12
84995;BME280;75312;47.528;19.016;2024-03-02T02:06:38;98299.88;;;9.46;83.23
84995;BME280;75312;47.528;19.016;2024-03-02T02:07:11;98291.88;;;9.47;82.90
84995;BME280;75312;47.528;19.016;2024-03-02T02:07:42;98292.19;;;9.44;83.07
84995;BME280;75312;47.528;19.016;2024-03-02T02:08:18;98294.16;;;9.42;83.56
84995;BME280;75312;47.528;19.016;2024-03-02T02:08:49;98296.88;;;9.32;84.10
84995;BME280;75312;47.528;19.016;2024-03-02T02:09:20;98299.66;;;9.23;84.24
84995;BME280;75312;47.528;19.016;2024-03-02T02:09:50;98300.94;;;9.19;84.64
84995;BME280;75312;47.528;19.016;2024-03-02T02:10:24;98303.44;;;9.28;84.46
84995;BME280;75312;47.528;19.016;2024-03-02T02:10:54;98309.28;;;9.22;85.16
84995;BME280;75312;47.528;19.016;2024-03-02T02:11:25;98298.66;;;9.24;84.63
84995;BME280;75312;47.528;19.016;2024-03-02T02:11:58;98298.38;;;9.27;84.99
84995;BME280;75312;47.528;19.016;2024-03-02T02:12:29;98306.00;;;9.20;85.40
84995;BME280;75312;47.528;19.016;2024-03-02T02:13:00;98310.38;;;9.12;85.52
84995;BME280;75312;47.528;19.016;2024-03-02T02:13:31;98311.06;;;9.22;85.50
84995;BME280;75312;47.528;19.016;2024-03-02T02:14:01;98304.84;;;9.15;85.53
84995;BME280;75312;47.528;19.016;2024-03-02T02:14:32;98306.19;;;9.19;85.28
84995;BME280;75312;47.528;19.016;2024-03-02T02:15:03;98319.94;;;9.29;84.97
84995;BME280;75312;47.528;19.016;2024-03-02T02:15:34;98308.47;;;9.22;85.46
84995;BME280;75312;47.528;19.016;2024-03-02T02:16:11;98313.00;;;9.12;85.94
84995;BME280;75312;47.528;19.016;2024-03-02T02:16:44;98318.72;;;9.15;85.54
84995;BME280;75312;47.528;19.016;2024-03-02T02:17:16;98314.28;;;9.08;86.19
84995;BME280;75312;47.528;19.016;2024-03-02T02:17:49;98313.50;;;9.15;86.18
84995;BME280;75312;47.528;19.016;2024-03-02T02:18:20;98315.44;;;9.13;85.82
84995;BME280;75312;47.528;19.016;2024-03-02T02:18:51;98310.84;;;9.07;86.42
84995;BME280;75312;47.528;19.016;2024-03-02T02:19:21;98313.47;;;9.07;86.54
84995;BME280;75312;47.528;19.016;2024-03-02T02:19:54;98315.59;;;9.03;86.53
84995;BME280;75312;47.528;19.016;2024-03-02T02:20:28;98314.97;;;9.10;86.10
84995;BME280;75312;47.528;19.016;2024-03-02T02:20:59;98322.16;;;9.16;86.39
84995;BME280;75312;47.528;19.016;2024-03-02T02:21:32;98319.25;;;9.19;85.82
84995;BME280;75312;47.528;19.016;2024-03-02T02:22:05;98319.09;;;9.20;85.50
84995;BME280;75312;47.528;19.016;2024-03-02T02:23:27;98318.91;;;9.22;85.41
84995;BME280;75312;47.528;19.016;2024-03-02T02:24:00;98311.88;;;9.22;85.12
84995;BME280;75312;47.528;19.016;2024-03-02T02:24:34;98315.47;;;9.21;85.38
84995;BME280;75312;47.528;19.016;2024-03-02T02:25:05;98317.78;;;9.24;85.64
84995;BME280;75312;47.528;19.016;2024-03-02T02:25:35;98317.63;;;9.26;85.59
84995;BME280;75312;47.528;19.016;2024-03-02T02:26:06;98314.34;;;9.24;85.21
84995;BME280;75312;47.528;19.016;2024-03-02T02:26:36;98316.09;;;9.15;85.49
84995;BME280;75312;47.528;19.016;2024-03-02T02:27:10;98320.22;;;9.18;85.49
84995;BME280;75312;47.528;19.016;2024-03-02T02:27:40;98315.16;;;9.24;85.02
84995;BME280;75312;47.528;19.016;2024-03-02T02:28:11;98316.97;;;9.24;84.84
84995;BME280;75312;47.528;19.016;2024-03-02T02:28:42;98325.47;;;9.26;85.02
84995;BME280;75312;47.528;19.016;2024-03-02T02:29:17;98320.91;;;9.28;84.86
84995;BME280;75312;47.528;19.016;2024-03-02T02:29:50;98321.88;;;9.27;85.04
84995;BME280;75312;47.528;19.016;2024-03-02T02:30:22;98316.50;;;9.28;84.93
84995;BME280;75312;47.528;19.016;2024-03-02T02:30:54;98317.78;;;9.32;85.31
84995;BME280;75312;47.528;19.016;2024-03-02T02:31:26;98315.50;;;9.29;84.80
84995;BME280;75312;47.528;19.016;2024-03-02T02:31:57;98315.88;;;9.35;84.54
84995;BME280;75312;47.528;19.016;2024-03-02T02:32:28;98312.09;;;9.37;84.47
84995;BME280;75312;47.528;19.016;2024-03-02T02:32:59;98315.88;;;9.35;84.66
84995;BME280;75312;47.528;19.016;2024-03-02T02:33:31;98320.09;;;9.27;84.74
84995;BME280;75312;47.528;19.016;2024-03-02T02:34:02;98323.00;;;9.24;84.94
84995;BME280;75312;47.528;19.016;2024-03-02T02:34:33;98324.50;;;9.27;85.24
84995;BME280;75312;47.528;19.016;2024-03-02T02:35:07;98319.94;;;9.29;84.66
84995;BME280;75312;47.528;19.016;2024-03-02T02:35:37;98325.47;;;9.26;85.33
84995;BME280;75312;47.528;19.016;2024-03-02T02:36:08;98322.03;;;9.25;85.29
84995;BME280;75312;47.528;19.016;2024-03-02T02:36:45;98325.94;;;9.21;85.71
84995;BME280;75312;47.528;19.016;2024-03-02T02:37:15;98325.28;;;9.19;85.58
84995;BME280;75312;47.528;19.016;2024-03-02T02:37:47;98322.50;;;9.21;85.42
84995;BME280;75312;47.528;19.016;2024-03-02T02:38:19;98333.63;;;9.23;85.13
84995;BME280;75312;47.528;19.016;2024-03-02T02:38:50;98325.94;;;9.21;85.23
84995;BME280;75312;47.528;19.016;2024-03-02T02:39:22;98325.13;;;9.21;85.29
84995;BME280;75312;47.528;19.016;2024-03-02T02:39:55;98327.41;;;9.24;85.38
84995;BME280;75312;47.528;19.016;2024-03-02T02:40:25;98323.69;;;9.26;85.03
84995;BME280;75312;47.528;19.016;2024-03-02T02:41:02;98327.13;;;9.35;84.28
84995;BME280;75312;47.528;19.016;2024-03-02T02:41:35;98325.81;;;9.31;84.52
84995;BME280;75312;47.528;19.016;2024-03-02T02:42:12;98328.59;;;9.29;84.79
84995;BME280;75312;47.528;19.016;2024-03-02T02:42:43;98327.41;;;9.24;84.79
84995;BME280;75312;47.528;19.016;2024-03-02T02:43:13;98321.06;;;9.26;84.88
84995;BME280;75312;47.528;19.016;2024-03-02T02:43:46;98324.78;;;9.24;84.96
84995;BME280;75312;47.528;19.016;2024-03-02T02:44:17;98323.00;;;9.24;85.11
84995;BME280;75312;47.528;19.016;2024-03-02T02:44:50;98326.13;;;9.28;84.77
84995;BME280;75312;47.528;19.016;2024-03-02T02:45:20;98321.22;;;9.33;84.28
84995;BME280;75312;47.528;19.016;2024-03-02T02:45:51;98314.88;;;9.36;84.15
84995;BME280;75312;47.528;19.016;2024-03-02T02:46:22;98320.28;;;9.34;84.09
84995;BME280;75312;47.528;19.016;2024-03-02T02:46:57;98312.28;;;9.36;84.35
84995;BME280;75312;47.528;19.016;2024-03-02T02:47:30;98316.19;;;9.40;83.84
84995;BME280;75312;47.528;19.016;2024-03-02T02:48:01;98314.25;;;9.42;84.31
84995;BME280;75312;47.528;19.016;2024-03-02T02:48:33;98311.31;;;9.45;84.08
84995;BME280;75312;47.528;19.016;2024-03-02T02:49:03;98315.22;;;9.49;83.66
84995;BME280;75312;47.528;19.016;2024-03-02T02:49:34;98308.38;;;9.48;83.70
84995;BME280;75312;47.528;19.016;2024-03-02T02:50:07;98307.72;;;9.46;84.08
84995;BME280;75312;47.528;19.016;2024-03-02T02:50:43;98312.94;;;9.46;84.04
84995;BME280;75312;47.528;19.016;2024-03-02T02:51:17;98308.06;;;9.51;83.67
84995;BME280;75312;47.528;19.016;2024-03-02T02:51:47;98310.53;;;9.52;83.02
84995;BME280;75312;47.528;19.016;2024-03-02T02:52:18;98310.97;;;9.48;83.64
84995;BME280;75312;47.528;19.016;2024-03-02T02:52:51;98304.66;;;9.50;83.12
84995;BME280;75312;47.528;19.016;2024-03-02T02:53:24;98306.41;;;9.50;83.01
84995;BME280;75312;47.528;19.016;2024-03-02T02:53:55;98306.28;;;9.51;83.18
84995;BME280;75312;47.528;19.016;2024-03-02T02:54:25;98314.13;;;9.51;82.79
84995;BME280;75312;47.528;19.016;2024-03-02T02:54:59;98309.34;;;9.47;83.54